Houn Maru — JG5489 — position and weather

sailwx.info

Track history (hours):
 
Tides and Currents Weather Stations Pressure Air Temp Water Temp Dewpoint Dewpoint Depression Visibility Wind Speed Wind Dir Waves Ship Positions

Houn Maru

Last reported at 2014-Jul-28 09:16 UTC. Time now 2014-Jul-30 21:22 UTC.
Position N 34°36' E 134°55'.

Length 91 m; draft 4.7 m.

Type: Tanker. MMSI: 431101172.

Date/timePositionNaut miles runAvg speedWind from/ knotsBaromVisibWave heightAir tempDewpointWater temp
2014-Jul-28 09:16N 34°36' E 134°55'810.8
2014-Jul-28 08:33N 34°36' E 135°04'1111.1
2014-Jul-28 07:33N 34°26' E 135°10'4 0.7
2014-Jul-28 02:25N 34°25' E 135°14'2 1.1
2014-Jul-28 00:29N 34°23' E 135°12'0 0.0
2014-Jul-27 23:32N 34°23' E 135°12'0 0.0
2014-Jul-27 22:32N 34°23' E 135°12'0 0.0
2014-Jul-27 21:32N 34°23' E 135°12'0 0.0
2014-Jul-27 20:32N 34°23' E 135°12'0 0.0
2014-Jul-27 19:17N 34°23' E 135°12'0 0.0
2014-Jul-27 18:32N 34°23' E 135°12'0 0.0
2014-Jul-27 17:32N 34°23' E 135°12'0 0.0
2014-Jul-27 16:26N 34°23' E 135°12'1 1.4
2014-Jul-27 15:33N 34°24' E 135°11'1111.3
2014-Jul-27 14:34N 34°34' E 135°04'10 8.8
2014-Jul-27 13:26N 34°34' E 134°52'7 0.2
2014-Jul-26 00:29N 34°38' E 134°59'1111.5
2014-Jul-25 23:33N 34°34' E 135°12'6 5.7
2014-Jul-25 22:28N 34°32' E 135°19'0 0.0
2014-Jul-25 21:28N 34°32' E 135°19'0 0.1
2014-Jul-25 20:28N 34°32' E 135°19'0 0.0
2014-Jul-25 19:22N 34°32' E 135°19'0 0.0
2014-Jul-25 18:28N 34°32' E 135°19'0 0.0
2014-Jul-25 17:22N 34°32' E 135°19'0 0.1
2014-Jul-25 16:28N 34°32' E 135°19'0 0.0
2014-Jul-25 15:28N 34°32' E 135°19'0 0.0
2014-Jul-25 14:28N 34°32' E 135°19'0 0.0
2014-Jul-25 13:22N 34°32' E 135°19'0 0.0
2014-Jul-25 12:28N 34°32' E 135°19'0 0.0
2014-Jul-25 11:28N 34°32' E 135°19'0 0.0
2014-Jul-25 10:16N 34°32' E 135°19'0 0.0
2014-Jul-25 09:28N 34°32' E 135°19'0 0.0
2014-Jul-25 08:22N 34°32' E 135°19'0 0.0
2014-Jul-25 07:28N 34°32' E 135°19'0 0.0
2014-Jul-25 06:22N 34°32' E 135°19'0 0.1
2014-Jul-25 05:30N 34°32' E 135°19'7 7.7
2014-Jul-25 04:33N 34°27' E 135°12'3 2.7
2014-Jul-25 03:33N 34°25' E 135°14'0 0.0
2014-Jul-25 02:32N 34°25' E 135°14'0 0.0
2014-Jul-25 01:20N 34°25' E 135°14'0 0.0
2014-Jul-25 00:32N 34°25' E 135°14'2 2.3
2014-Jul-24 23:30N 34°23' E 135°13'0 0.0
2014-Jul-24 22:30N 34°23' E 135°13'0 0.0
2014-Jul-24 21:30N 34°23' E 135°13'0 0.0
2014-Jul-24 20:30N 34°23' E 135°13'0 0.0
2014-Jul-24 19:30N 34°23' E 135°13'0 0.0
2014-Jul-24 18:30N 34°23' E 135°13'0 0.0
2014-Jul-24 17:30N 34°23' E 135°13'0 0.0
2014-Jul-24 16:24N 34°23' E 135°13'0 0.0
2014-Jul-24 15:12N 34°23' E 135°13'0 0.1
2014-Jul-24 14:33N 34°23' E 135°13'1010.1
2014-Jul-24 13:33N 34°32' E 135°06'9 8.9
2014-Jul-24 12:33N 34°36' E 134°56'4 0.1
2014-Jul-23 07:18N 34°35' E 134°51'1012.9
2014-Jul-23 06:33N 34°36' E 135°03'1211.8
2014-Jul-23 05:33N 34°26' E 135°10'4 0.7
2014-Jul-23 00:14N 34°25' E 135°14'2 1.3
2014-Jul-22 22:28N 34°23' E 135°13'0 0.0
2014-Jul-22 21:22N 34°23' E 135°13'0 0.0
2014-Jul-22 20:22N 34°23' E 135°13'0 0.0
2014-Jul-22 19:28N 34°23' E 135°13'0 0.0
2014-Jul-22 18:16N 34°23' E 135°13'0 0.0
2014-Jul-22 15:28N 34°23' E 135°13'1 0.7
2014-Jul-22 14:33N 34°24' E 135°12'1111.1
2014-Jul-22 13:33N 34°33' E 135°05'9 0.3
2014-Jul-21 01:32N 34°36' E 134°54'9 9.1
2014-Jul-21 00:33N 34°36' E 135°05'1212.3
2014-Jul-20 23:33N 34°36' E 135°20'  
Track history (hours):
 
Tides and Currents Weather Stations Pressure Air Temp Water Temp Dewpoint Dewpoint Depression Visibility Wind Speed Wind Dir Waves Ship Positions

Houn Maru

Last reported at 2014-Jul-28 09:16 UTC. Time now 2014-Jul-30 21:22 UTC.
Position N 34°36' E 134°55'.

Length 91 m; draft 4.7 m.

Type: Tanker. MMSI: 431101172.

Date/timePositionNaut miles runAvg speedWind from/ knotsBaromVisibWave heightAir tempDewpointWater temp
2014-Jul-28 09:16N 34°36' E 134°55'810.8
2014-Jul-28 08:33N 34°36' E 135°04'1111.1
2014-Jul-28 07:33N 34°26' E 135°10'4 0.7
2014-Jul-28 02:25N 34°25' E 135°14'2 1.1
2014-Jul-28 00:29N 34°23' E 135°12'0 0.0
2014-Jul-27 23:32N 34°23' E 135°12'0 0.0
2014-Jul-27 22:32N 34°23' E 135°12'0 0.0
2014-Jul-27 21:32N 34°23' E 135°12'0 0.0
2014-Jul-27 20:32N 34°23' E 135°12'0 0.0
2014-Jul-27 19:17N 34°23' E 135°12'0 0.0
2014-Jul-27 18:32N 34°23' E 135°12'0 0.0
2014-Jul-27 17:32N 34°23' E 135°12'0 0.0
2014-Jul-27 16:26N 34°23' E 135°12'1 1.4
2014-Jul-27 15:33N 34°24' E 135°11'1111.3
2014-Jul-27 14:34N 34°34' E 135°04'10 8.8
2014-Jul-27 13:26N 34°34' E 134°52'7 0.2
2014-Jul-26 00:29N 34°38' E 134°59'1111.5
2014-Jul-25 23:33N 34°34' E 135°12'6 5.7
2014-Jul-25 22:28N 34°32' E 135°19'0 0.0
2014-Jul-25 21:28N 34°32' E 135°19'0 0.1
2014-Jul-25 20:28N 34°32' E 135°19'0 0.0
2014-Jul-25 19:22N 34°32' E 135°19'0 0.0
2014-Jul-25 18:28N 34°32' E 135°19'0 0.0
2014-Jul-25 17:22N 34°32' E 135°19'0 0.1
2014-Jul-25 16:28N 34°32' E 135°19'0 0.0
2014-Jul-25 15:28N 34°32' E 135°19'0 0.0
2014-Jul-25 14:28N 34°32' E 135°19'0 0.0
2014-Jul-25 13:22N 34°32' E 135°19'0 0.0
2014-Jul-25 12:28N 34°32' E 135°19'0 0.0
2014-Jul-25 11:28N 34°32' E 135°19'0 0.0
2014-Jul-25 10:16N 34°32' E 135°19'0 0.0
2014-Jul-25 09:28N 34°32' E 135°19'0 0.0
2014-Jul-25 08:22N 34°32' E 135°19'0 0.0
2014-Jul-25 07:28N 34°32' E 135°19'0 0.0
2014-Jul-25 06:22N 34°32' E 135°19'0 0.1
2014-Jul-25 05:30N 34°32' E 135°19'7 7.7
2014-Jul-25 04:33N 34°27' E 135°12'3 2.7
2014-Jul-25 03:33N 34°25' E 135°14'0 0.0
2014-Jul-25 02:32N 34°25' E 135°14'0 0.0
2014-Jul-25 01:20N 34°25' E 135°14'0 0.0
2014-Jul-25 00:32N 34°25' E 135°14'2 2.3
2014-Jul-24 23:30N 34°23' E 135°13'0 0.0
2014-Jul-24 22:30N 34°23' E 135°13'0 0.0
2014-Jul-24 21:30N 34°23' E 135°13'0 0.0
2014-Jul-24 20:30N 34°23' E 135°13'0 0.0
2014-Jul-24 19:30N 34°23' E 135°13'0 0.0
2014-Jul-24 18:30N 34°23' E 135°13'0 0.0
2014-Jul-24 17:30N 34°23' E 135°13'0 0.0
2014-Jul-24 16:24N 34°23' E 135°13'0 0.0
2014-Jul-24 15:12N 34°23' E 135°13'0 0.1
2014-Jul-24 14:33N 34°23' E 135°13'1010.1
2014-Jul-24 13:33N 34°32' E 135°06'9 8.9
2014-Jul-24 12:33N 34°36' E 134°56'4 0.1
2014-Jul-23 07:18N 34°35' E 134°51'1012.9
2014-Jul-23 06:33N 34°36' E 135°03'1211.8
2014-Jul-23 05:33N 34°26' E 135°10'4 0.7
2014-Jul-23 00:14N 34°25' E 135°14'2 1.3
2014-Jul-22 22:28N 34°23' E 135°13'0 0.0
2014-Jul-22 21:22N 34°23' E 135°13'0 0.0
2014-Jul-22 20:22N 34°23' E 135°13'0 0.0
2014-Jul-22 19:28N 34°23' E 135°13'0 0.0
2014-Jul-22 18:16N 34°23' E 135°13'0 0.0
2014-Jul-22 15:28N 34°23' E 135°13'1 0.7
2014-Jul-22 14:33N 34°24' E 135°12'1111.1
2014-Jul-22 13:33N 34°33' E 135°05'9 0.3
2014-Jul-21 01:32N 34°36' E 134°54'9 9.1
2014-Jul-21 00:33N 34°36' E 135°05'1212.3
2014-Jul-20 23:33N 34°36' E 135°20'  

Dump ship's entire track history